Date,TemperatureHighF,TemperatureAvgF,TemperatureLowF,DewpointHighF,DewpointAvgF,DewpointLowF,HumidityHigh,HumidityAvg,HumidityLow,PressureMaxIn,PressureMinIn,WindSpeedMaxMPH,WindSpeedAvgMPH,GustSpeedMaxMPH,PrecipitationSumIn
2013-2-3,55.0,42.1,29.0,30.0,22.8,16.0,61,48,30,30.17,29.93,7,3,12,0.00
2013-2-4,56.0,42.6,34.0,30.0,25.7,19.0,76,53,30,30.03,29.94,10,6,15,0.00
2013-2-5,59.0,42.4,31.0,26.0,20.0,13.0,66,43,22,30.02,29.92,6,3,12,0.00
2013-2-6,61.0,42.1,24.0,30.0,21.5,13.0,68,46,28,29.93,29.81,7,3,12,0.00
2013-2-7,57.0,42.1,29.0,28.0,20.6,9.0,70,45,21,30.06,29.93,9,3,14,0.00
2013-2-8,58.0,43.0,28.0,27.0,21.0,12.0,56,42,28,30.03,29.73,13,4,18,0.00
2013-2-9,47.0,35.4,24.0,25.0,14.8,9.0,64,44,27,29.75,29.60,23,9,29,0.03
2013-2-10,44.0,32.1,20.0,20.0,14.1,9.0,66,49,29,29.88,29.75,10,4,17,0.01
2013-2-11,48.0,32.0,16.0,26.0,17.4,9.0,79,59,22,29.91,29.82,11,3,18,0.00
2013-2-12,40.0,29.6,21.0,19.0,13.3,7.0,76,53,27,30.05,29.86,13,7,22,0.00
2013-2-13,47.0,32.0,19.0,17.0,12.8,6.0,62,46,30,30.05,29.94,14,5,21,0.00
2013-2-14,51.0,36.4,23.0,22.0,17.3,12.0,68,48,28,30.04,29.96,16,7,23,0.00
2013-2-18,51.0,39.3,27.0,17.0,0.1,-13.0,53,22,7,29.99,29.76,16,6,23,0.00
2013-2-19,59.0,40.1,20.0,34.0,6.9,-10.0,71,28,13,29.99,29.70,18,6,24,0.00
2013-2-20,55.0,41.3,32.0,35.0,29.7,18.0,78,65,29,29.71,29.52,15,6,23,0.00
2013-2-21,51.0,37.5,31.0,26.0,22.2,17.0,76,56,30,29.81,29.52,12,5,17,0.00
2013-2-22,45.0,33.9,24.0,24.0,18.1,12.0,69,53,30,29.94,29.80,12,3,21,0.00
2013-2-23,51.0,33.9,16.0,17.0,12.1,5.0,65,43,22,29.96,29.67,10,4,14,0.00
2013-2-24,41.0,33.4,28.0,24.0,13.9,5.0,68,46,27,29.80,29.61,18,9,25,0.00
2013-2-25,48.0,34.8,24.0,15.0,10.7,4.0,64,39,18,29.96,29.80,14,8,18,0.00
2013-2-26,47.0,32.7,15.0,17.0,4.9,-5.0,57,33,15,29.96,29.77,18,7,28,0.00
2013-2-27,46.0,32.0,18.0,13.0,5.7,-3.0,53,34,20,30.14,29.96,11,4,16,0.00
2013-2-28,52.0,35.7,21.0,12.0,4.8,-2.0,44,29,12,30.19,30.10,10,5,16,0.00